createdAt,value
2023-04-28T00:01:53.731Z,12.75
2023-04-28T00:04:41.297Z,12.57
2023-04-28T00:07:22.716Z,12.83
2023-04-28T00:09:49.647Z,12.71
2023-04-28T00:12:16.607Z,12.57
2023-04-28T00:14:43.528Z,12.84
2023-04-28T00:17:30.915Z,12.58
2023-04-28T00:20:11.938Z,12.48
2023-04-28T00:22:39.133Z,12.43
2023-04-28T00:25:06.781Z,12.58
2023-04-28T00:27:53.808Z,12.51
2023-04-28T00:30:38.836Z,12.40
2023-04-28T00:33:06.133Z,12.39
2023-04-28T00:35:52.842Z,12.54
2023-04-28T00:38:33.739Z,12.55
2023-04-28T00:41:00.903Z,12.33
2023-04-28T00:43:28.171Z,12.17
2023-04-28T00:46:15.858Z,12.39
2023-04-28T00:48:57.658Z,12.45
2023-04-28T00:51:24.639Z,12.30
2023-04-28T00:54:11.841Z,12.30
2023-04-28T00:57:12.841Z,12.34
2023-04-28T00:59:54.097Z,12.20
2023-04-28T01:02:42.960Z,12.35
2023-04-28T01:05:36.928Z,12.31
2023-04-28T01:08:04.740Z,12.41
2023-04-28T01:10:31.763Z,12.22
2023-04-28T01:13:05.668Z,12.06
2023-04-28T01:15:52.844Z,12.28
2023-04-28T01:18:33.806Z,12.36
2023-04-28T01:21:01.226Z,12.34
2023-04-28T01:23:28.323Z,12.24
2023-04-28T01:25:55.280Z,12.29
2023-04-28T01:28:41.886Z,12.10
2023-04-28T01:31:22.505Z,11.72
2023-04-28T01:33:49.529Z,11.95
2023-04-28T01:36:37.783Z,11.98
2023-04-28T01:39:18.894Z,11.67
2023-04-28T01:41:46.090Z,11.82
2023-04-28T01:44:13.481Z,11.87
2023-04-28T01:46:41.045Z,12.00
2023-04-28T01:49:08.084Z,11.71
2023-04-28T01:51:36.210Z,11.87
2023-04-28T01:54:22.855Z,11.95
2023-04-28T01:57:23.854Z,11.91
2023-04-28T02:00:24.862Z,11.85
2023-04-28T02:03:26.085Z,11.72
2023-04-28T02:06:09.493Z,11.81
2023-04-28T02:08:36.454Z,11.71
2023-04-28T02:11:04.354Z,11.75
2023-04-28T02:13:31.418Z,11.66
2023-04-28T02:16:01.869Z,11.92
2023-04-28T02:18:28.924Z,11.75
2023-04-28T02:21:08.898Z,11.86
2023-04-28T02:23:36.151Z,11.91
2023-04-28T02:26:06.024Z,11.43
2023-04-28T02:28:53.935Z,11.95
2023-04-28T02:31:34.597Z,11.72
2023-04-28T02:34:01.864Z,11.61
2023-04-28T02:36:48.872Z,11.29
2023-04-28T02:39:31.144Z,11.81
2023-04-28T02:41:58.106Z,11.76
2023-04-28T02:44:25.311Z,11.41
2023-04-28T02:46:52.260Z,11.98
2023-04-28T02:49:19.264Z,11.84
2023-04-28T02:51:46.654Z,11.89
2023-04-28T02:54:35.883Z,11.77
2023-04-28T02:57:17.619Z,11.97
2023-04-28T02:59:44.539Z,11.85
2023-04-28T03:02:32.017Z,11.81
2023-04-28T03:05:32.900Z,11.89
2023-04-28T03:08:13.443Z,11.58
2023-04-28T03:11:00.897Z,11.62
2023-04-28T03:13:41.627Z,11.69
2023-04-28T03:16:29.032Z,11.68
2023-04-28T03:19:09.521Z,11.75
2023-04-28T03:21:36.623Z,11.47
2023-04-28T03:24:12.744Z,11.55
2023-04-28T03:26:40.545Z,11.39
2023-04-28T03:29:27.893Z,11.39
2023-04-28T03:32:08.537Z,11.31
2023-04-28T03:34:55.893Z,11.52
2023-04-28T03:37:36.616Z,11.77
2023-04-28T03:40:03.782Z,11.74
2023-04-28T03:42:42.378Z,11.49
2023-04-28T03:45:12.621Z,10.99
2023-04-28T03:47:39.869Z,11.40
2023-04-28T03:50:26.940Z,11.65
2023-04-28T03:53:27.937Z,11.13
2023-04-28T03:56:08.619Z,11.65
2023-04-28T03:58:35.675Z,11.76
2023-04-28T04:01:02.752Z,11.54
2023-04-28T04:03:30.073Z,11.45
2023-04-28T04:05:57.749Z,11.59
2023-04-28T04:08:24.828Z,11.44
2023-04-28T04:11:11.935Z,11.50
2023-04-28T04:14:13.112Z,11.43
2023-04-28T04:16:55.577Z,11.09
2023-04-28T04:19:24.188Z,11.66
2023-04-28T04:21:54.120Z,11.44
2023-04-28T04:24:21.155Z,11.60
2023-04-28T04:26:48.711Z,11.55
2023-04-28T04:29:52.032Z,11.28
2023-04-28T04:32:33.827Z,11.23
2023-04-28T04:35:20.992Z,10.90
2023-04-28T04:38:01.792Z,11.23
2023-04-28T04:40:28.917Z,11.03
2023-04-28T04:43:15.989Z,11.69
2023-04-28T04:46:02.467Z,11.88
2023-04-28T04:48:29.726Z,11.85
2023-04-28T04:50:58.520Z,11.81
2023-04-28T04:53:46.018Z,12.24
2023-04-28T04:56:26.565Z,12.08
2023-04-28T04:58:54.728Z,11.98
2023-04-28T05:01:54.469Z,12.14
2023-04-28T05:04:22.506Z,12.64
2023-04-28T05:06:50.117Z,12.76
2023-04-28T05:09:39.009Z,12.84
2023-04-28T05:12:30.222Z,13.03
2023-04-28T05:14:57.314Z,12.31
2023-04-28T05:17:45.337Z,13.06
2023-04-28T05:20:48.000Z,12.60
2023-04-28T05:23:28.848Z,12.66
2023-04-28T05:26:00.472Z,13.20
2023-04-28T05:29:23.037Z,11.97
2023-04-28T05:32:26.033Z,12.76
2023-04-28T05:35:25.729Z,12.46
2023-04-28T05:38:01.382Z,12.30
2023-04-28T05:40:29.373Z,13.12
2023-04-28T05:42:56.686Z,13.01
2023-04-28T05:45:23.834Z,12.86
2023-04-28T05:47:51.430Z,12.61
2023-04-28T05:50:39.278Z,13.16
2023-04-28T05:53:39.998Z,12.89
2023-04-28T05:56:20.662Z,12.39
2023-04-28T05:58:50.024Z,12.78
2023-04-28T06:01:17.982Z,13.04
2023-04-28T06:03:46.470Z,13.47
2023-04-28T06:06:14.010Z,13.68
2023-04-28T06:08:41.413Z,14.77
2023-04-28T06:11:29.011Z,14.82
2023-04-28T06:14:09.647Z,15.42
2023-04-28T06:16:36.717Z,15.26
2023-04-28T06:19:03.999Z,15.79
2023-04-28T06:21:51.059Z,15.19
2023-04-28T06:24:52.093Z,14.54
2023-04-28T06:28:02.090Z,14.58
2023-04-28T06:30:42.654Z,15.28
2023-04-28T06:33:09.591Z,15.05
2023-04-28T06:35:57.026Z,15.25
2023-04-28T06:38:37.857Z,15.28
2023-04-28T06:41:07.189Z,16.10
2023-04-28T06:43:41.909Z,17.41
2023-04-28T06:46:15.342Z,16.21
2023-04-28T06:48:43.196Z,17.79
2023-04-28T06:51:11.154Z,16.60
2023-04-28T06:53:38.782Z,16.07
2023-04-28T06:56:28.114Z,17.40
2023-04-28T06:59:29.086Z,17.55
2023-04-28T07:02:28.158Z,17.92
2023-04-28T07:04:55.571Z,16.78
2023-04-28T07:07:22.610Z,16.17
2023-04-28T07:09:49.700Z,16.00
2023-04-28T07:12:17.131Z,15.90
2023-04-28T07:15:04.135Z,15.22
2023-04-28T07:18:05.180Z,16.77
2023-04-28T07:21:06.152Z,17.27
2023-04-28T07:23:59.259Z,15.81
2023-04-28T07:26:27.927Z,16.16
2023-04-28T07:29:16.092Z,16.48
2023-04-28T07:32:20.439Z,16.93
2023-04-28T07:35:04.907Z,17.25
2023-04-28T07:37:33.190Z,17.43
2023-04-28T07:40:01.077Z,18.10
2023-04-28T07:42:51.235Z,16.94
2023-04-28T07:45:32.672Z,17.78
2023-04-28T07:48:00.660Z,18.12
2023-04-28T07:50:48.195Z,17.10
2023-04-28T07:53:29.161Z,17.97
2023-04-28T07:55:58.091Z,17.60
2023-04-28T07:58:50.193Z,17.08
2023-04-28T08:01:31.652Z,18.06
2023-04-28T08:03:59.747Z,18.97
2023-04-28T08:06:30.594Z,19.99
2023-04-28T08:09:18.242Z,18.46
2023-04-28T08:12:02.085Z,17.12
2023-04-28T08:14:36.214Z,17.74
2023-04-28T08:17:06.608Z,18.34
2023-04-28T08:19:47.245Z,17.13
2023-04-28T08:22:30.527Z,17.87
2023-04-28T08:24:58.428Z,17.97
2023-04-28T08:27:50.215Z,18.28
2023-04-28T08:30:36.154Z,19.30
2023-04-28T08:33:15.142Z,18.71
2023-04-28T08:35:44.929Z,20.82
2023-04-28T08:38:17.622Z,18.86
2023-04-28T08:41:13.197Z,18.90
2023-04-28T08:44:16.384Z,19.13
2023-04-28T08:47:26.206Z,19.01
2023-04-28T08:50:08.873Z,21.27
2023-04-28T08:52:36.769Z,21.48
2023-04-28T08:55:08.265Z,20.86
2023-04-28T08:57:43.237Z,21.94
2023-04-28T09:00:12.208Z,20.66
2023-04-28T09:02:59.416Z,21.17
2023-04-28T09:05:39.808Z,22.02
2023-04-28T09:08:06.982Z,21.20
2023-04-28T09:10:34.104Z,21.58
2023-04-28T09:13:01.327Z,22.25
2023-04-28T09:15:42.372Z,22.24
2023-04-28T09:18:15.703Z,22.90
2023-04-28T09:20:43.250Z,23.28
2023-04-28T09:23:15.032Z,23.40
2023-04-28T09:25:58.826Z,21.26
2023-04-28T09:28:50.166Z,21.91
2023-04-28T09:31:51.203Z,21.37
2023-04-28T09:35:00.227Z,21.10
2023-04-28T09:37:40.794Z,21.61
2023-04-28T09:40:09.868Z,22.48
2023-04-28T09:42:45.131Z,20.16
2023-04-28T09:45:32.192Z,20.05
2023-04-28T09:48:44.151Z,20.81
2023-04-28T09:51:25.829Z,21.07
2023-04-28T09:53:53.502Z,21.82
2023-04-28T09:56:45.202Z,20.37
2023-04-28T09:59:47.183Z,21.06
2023-04-28T10:02:49.340Z,21.66
2023-04-28T10:05:50.176Z,22.45
2023-04-28T10:08:52.273Z,22.05
2023-04-28T10:11:34.054Z,23.13
2023-04-28T10:14:01.108Z,23.45
2023-04-28T10:16:31.534Z,24.15
2023-04-28T10:18:59.496Z,23.64
2023-04-28T10:21:29.002Z,24.29
2023-04-28T10:24:11.347Z,23.67
2023-04-28T10:27:25.249Z,24.56
2023-04-28T10:30:31.245Z,24.27
2023-04-28T10:33:15.048Z,24.91
2023-04-28T10:35:51.221Z,24.37
2023-04-28T10:38:20.901Z,23.96
2023-04-28T10:40:54.514Z,23.16
2023-04-28T10:43:27.741Z,24.10
2023-04-28T10:45:57.449Z,24.46
2023-04-28T10:48:49.330Z,24.21
2023-04-28T10:51:50.209Z,21.58
2023-04-28T10:54:51.232Z,21.99
2023-04-28T10:57:23.152Z,22.17
2023-04-28T10:59:50.879Z,21.23
2023-04-28T11:02:39.702Z,22.14
2023-04-28T11:05:12.797Z,21.64
2023-04-28T11:07:40.024Z,22.36
2023-04-28T11:10:12.109Z,22.01
2023-04-28T11:13:18.047Z,22.59
2023-04-28T11:16:03.511Z,21.40
2023-04-28T11:19:14.300Z,22.31
2023-04-28T11:21:56.890Z,21.50
2023-04-28T11:24:29.126Z,21.72
2023-04-28T11:26:57.020Z,21.60
2023-04-28T11:29:56.256Z,21.36
2023-04-28T11:32:37.390Z,22.33
2023-04-28T11:35:09.380Z,21.82
2023-04-28T11:37:36.588Z,22.06
2023-04-28T11:40:13.780Z,22.84
2023-04-28T11:42:50.356Z,22.16
2023-04-28T11:45:17.398Z,22.63
2023-04-28T11:47:44.417Z,22.18
2023-04-28T11:50:13.064Z,22.46
2023-04-28T11:52:53.776Z,22.66
2023-04-28T11:55:21.181Z,22.85
2023-04-28T11:57:50.281Z,23.69
2023-04-28T12:00:38.248Z,23.03
2023-04-28T12:03:39.385Z,22.73
2023-04-28T12:06:20.178Z,23.42
2023-04-28T12:08:47.484Z,23.58
2023-04-28T12:11:36.281Z,23.31
2023-04-28T12:14:39.263Z,23.68
2023-04-28T12:17:31.405Z,23.62
2023-04-28T12:20:01.031Z,22.35
2023-04-28T12:22:28.764Z,22.59
2023-04-28T12:25:06.985Z,22.38
2023-04-28T12:27:54.317Z,22.48
2023-04-28T12:30:44.198Z,22.35
2023-04-28T12:33:27.831Z,22.88
2023-04-28T12:35:57.121Z,23.41
2023-04-28T12:38:24.821Z,23.61
2023-04-28T12:40:52.347Z,23.89
2023-04-28T12:43:39.299Z,23.98
2023-04-28T12:46:20.022Z,23.42
2023-04-28T12:49:07.276Z,23.72
2023-04-28T12:52:08.699Z,23.24
2023-04-28T12:54:55.104Z,23.33
2023-04-28T12:57:43.328Z,23.83
2023-04-28T13:00:25.201Z,23.82
2023-04-28T13:03:12.485Z,23.50
2023-04-28T13:06:13.364Z,23.14
2023-04-28T13:09:14.276Z,23.39
2023-04-28T13:12:11.730Z,22.74
2023-04-28T13:14:38.890Z,22.43
2023-04-28T13:17:06.063Z,23.10
2023-04-28T13:19:34.377Z,23.68
2023-04-28T13:22:05.236Z,22.94
2023-04-28T13:24:35.876Z,22.52
2023-04-28T13:27:04.872Z,22.64
2023-04-28T13:29:52.327Z,22.08
2023-04-28T13:32:33.675Z,22.76
2023-04-28T13:35:00.790Z,22.35
2023-04-28T13:37:27.971Z,23.12
2023-04-28T13:39:54.921Z,23.63
2023-04-28T13:42:42.337Z,23.59
2023-04-28T13:45:23.003Z,23.72
2023-04-28T13:47:51.179Z,23.20
2023-04-28T13:50:39.663Z,23.77
2023-04-28T13:53:20.023Z,22.98
2023-04-28T13:55:48.855Z,22.83
2023-04-28T13:58:17.556Z,22.98
2023-04-28T14:01:04.336Z,23.57
2023-04-28T14:03:58.901Z,23.22
2023-04-28T14:06:27.474Z,23.47
2023-04-28T14:08:54.603Z,23.10
2023-04-28T14:11:42.325Z,23.80
2023-04-28T14:14:43.401Z,23.96
2023-04-28T14:17:25.163Z,23.52
2023-04-28T14:19:52.274Z,23.87
2023-04-28T14:22:19.635Z,23.96
2023-04-28T14:24:46.930Z,23.97
2023-04-28T14:27:15.256Z,23.82
2023-04-28T14:30:02.387Z,23.96
2023-04-28T14:32:43.308Z,23.89
2023-04-28T14:35:12.450Z,24.29
2023-04-28T14:37:40.387Z,23.59
2023-04-28T14:40:08.578Z,23.41
2023-04-28T14:42:37.347Z,23.35
2023-04-28T14:45:06.394Z,23.64
2023-04-28T14:47:33.820Z,23.66
2023-04-28T14:50:00.932Z,22.75
2023-04-28T14:52:29.219Z,22.70
2023-04-28T14:55:16.384Z,23.14
2023-04-28T14:58:17.339Z,22.81
2023-04-28T15:00:57.895Z,23.16
2023-04-28T15:03:46.563Z,23.08
2023-04-28T15:06:28.233Z,22.47
2023-04-28T15:08:55.203Z,22.80
2023-04-28T15:11:22.188Z,22.78
2023-04-28T15:13:49.136Z,23.03
2023-04-28T15:16:36.448Z,22.40
2023-04-28T15:19:37.350Z,22.82
2023-04-28T15:22:22.227Z,22.60
2023-04-28T15:24:49.599Z,22.81
2023-04-28T15:27:19.207Z,22.39
2023-04-28T15:30:21.423Z,23.10
2023-04-28T15:33:24.430Z,23.38
2023-04-28T15:36:27.703Z,23.58
2023-04-28T15:39:08.116Z,23.76
2023-04-28T15:41:35.853Z,23.92
2023-04-28T15:44:03.012Z,24.03
2023-04-28T15:46:30.097Z,23.96
2023-04-28T15:49:17.415Z,24.02
2023-04-28T15:51:58.124Z,24.01
2023-04-28T15:54:28.441Z,24.05
2023-04-28T15:57:15.414Z,24.27
2023-04-28T15:59:56.128Z,24.35
2023-04-28T16:02:23.844Z,24.32
2023-04-28T16:04:51.673Z,24.14
2023-04-28T16:07:44.652Z,24.23
2023-04-28T16:10:25.062Z,23.69
2023-04-28T16:12:52.074Z,23.50
2023-04-28T16:15:20.694Z,23.76
2023-04-28T16:17:49.162Z,23.82
2023-04-28T16:20:36.447Z,24.05
2023-04-28T16:23:37.433Z,23.81
2023-04-28T16:26:18.422Z,23.84
2023-04-28T16:29:06.439Z,23.83
2023-04-28T16:32:07.737Z,24.07
2023-04-28T16:35:13.924Z,23.76
2023-04-28T16:38:15.442Z,24.01
2023-04-28T16:40:56.419Z,23.61
2023-04-28T16:43:44.615Z,23.70
2023-04-28T16:46:25.129Z,23.80
2023-04-28T16:48:52.149Z,23.34
2023-04-28T16:51:43.449Z,23.32
2023-04-28T16:54:28.638Z,23.07
2023-04-28T16:56:56.369Z,23.08
2023-04-28T16:59:26.593Z,23.28
2023-04-28T17:02:14.597Z,23.21
2023-04-28T17:04:55.180Z,23.02
2023-04-28T17:07:25.011Z,22.82
2023-04-28T17:09:53.122Z,22.91
2023-04-28T17:12:21.234Z,22.88
2023-04-28T17:14:48.139Z,22.52
2023-04-28T17:17:15.198Z,22.64
2023-04-28T17:19:42.293Z,22.61
2023-04-28T17:22:09.386Z,22.33
2023-04-28T17:24:36.337Z,22.23
2023-04-28T17:27:03.404Z,22.18
2023-04-28T17:29:50.629Z,22.01
2023-04-28T17:32:52.464Z,22.02
2023-04-28T17:35:53.455Z,21.82
2023-04-28T17:38:35.654Z,22.05
2023-04-28T17:41:02.653Z,21.89
2023-04-28T17:43:31.007Z,21.82
2023-04-28T17:45:57.977Z,21.65
2023-04-28T17:48:24.984Z,21.50
2023-04-28T17:50:52.607Z,21.64
2023-04-28T17:53:19.549Z,21.34
2023-04-28T17:55:46.422Z,21.43
2023-04-28T17:58:13.577Z,21.44
2023-04-28T18:00:40.698Z,21.13
2023-04-28T18:03:27.560Z,21.09
2023-04-28T18:06:28.470Z,20.88
2023-04-28T18:09:16.151Z,20.48
2023-04-28T18:11:43.097Z,20.70
2023-04-28T18:14:30.497Z,20.62
2023-04-28T18:17:11.768Z,19.93
2023-04-28T18:19:38.665Z,20.18
2023-04-28T18:22:05.809Z,19.77
2023-04-28T18:24:33.412Z,19.59
2023-04-28T18:27:00.597Z,19.70
2023-04-28T18:29:47.527Z,19.49
2023-04-28T18:32:30.468Z,19.37
2023-04-28T18:34:57.525Z,19.03
2023-04-28T18:37:24.619Z,19.19
2023-04-28T18:40:11.609Z,19.13
2023-04-28T18:43:13.504Z,18.86
2023-04-28T18:45:54.513Z,18.80
2023-04-28T18:48:21.967Z,18.83
2023-04-28T18:51:10.552Z,18.94
2023-04-28T18:53:51.154Z,18.94
2023-04-28T18:56:18.238Z,18.58
2023-04-28T18:58:47.585Z,18.62
2023-04-28T19:01:15.905Z,18.84
2023-04-28T19:04:03.809Z,18.54
2023-04-28T19:06:44.209Z,18.60
2023-04-28T19:09:39.557Z,18.53
2023-04-28T19:12:40.553Z,18.52
2023-04-28T19:15:41.633Z,18.47
2023-04-28T19:18:24.102Z,18.58
2023-04-28T19:20:59.446Z,18.61
2023-04-28T19:23:26.947Z,18.53
2023-04-28T19:25:56.489Z,18.69
2023-04-28T19:28:43.575Z,18.52
2023-04-28T19:31:46.553Z,18.57
2023-04-28T19:34:27.221Z,18.30
2023-04-28T19:36:55.894Z,18.30
2023-04-28T19:39:43.585Z,18.24
2023-04-28T19:42:26.349Z,17.97
2023-04-28T19:45:06.562Z,18.10
2023-04-28T19:48:07.632Z,17.80
2023-04-28T19:51:08.567Z,17.67
2023-04-28T19:54:10.608Z,17.70
2023-04-28T19:57:11.603Z,17.77
2023-04-28T19:59:46.216Z,17.74
2023-04-28T20:02:14.232Z,17.31
2023-04-28T20:05:03.733Z,17.47
2023-04-28T20:07:57.713Z,17.60
2023-04-28T20:10:38.596Z,17.47
2023-04-28T20:13:07.189Z,17.30
2023-04-28T20:15:54.640Z,17.17
2023-04-28T20:18:36.029Z,17.18
2023-04-28T20:21:38.872Z,17.20
2023-04-28T20:24:19.623Z,17.24
2023-04-28T20:26:46.753Z,16.95
2023-04-28T20:29:33.599Z,17.19
2023-04-28T20:32:14.285Z,16.71
2023-04-28T20:34:41.582Z,16.79
2023-04-28T20:37:08.632Z,16.71
2023-04-28T20:39:35.809Z,16.83
2023-04-28T20:42:03.270Z,17.03
2023-04-28T20:44:30.382Z,17.08
2023-04-28T20:46:57.670Z,16.69
2023-04-28T20:49:25.278Z,16.70
2023-04-28T20:52:18.684Z,17.13
2023-04-28T20:55:22.633Z,16.93
2023-04-28T20:58:26.786Z,17.03
2023-04-28T21:01:14.425Z,17.15
2023-04-28T21:04:02.142Z,17.17
2023-04-28T21:06:42.133Z,17.05
2023-04-28T21:09:10.216Z,16.75
2023-04-28T21:11:37.198Z,16.98
2023-04-28T21:14:04.162Z,16.82
2023-04-28T21:16:31.367Z,16.81
2023-04-28T21:18:58.410Z,16.78
2023-04-28T21:21:25.571Z,17.02
2023-04-28T21:23:52.672Z,16.91
2023-04-28T21:26:20.541Z,16.75
2023-04-28T21:29:07.622Z,16.33
2023-04-28T21:31:48.352Z,16.41
2023-04-28T21:34:15.363Z,16.54
2023-04-28T21:36:42.415Z,16.52
2023-04-28T21:39:09.650Z,16.83
2023-04-28T21:41:36.554Z,16.77
2023-04-28T21:44:03.707Z,16.43
2023-04-28T21:46:30.875Z,16.14
2023-04-28T21:48:58.227Z,16.56
2023-04-28T21:51:48.805Z,16.28
2023-04-28T21:54:49.624Z,16.49
2023-04-28T21:57:50.641Z,16.26
2023-04-28T22:00:57.635Z,16.30
2023-04-28T22:03:59.822Z,16.26
2023-04-28T22:06:40.256Z,15.89
2023-04-28T22:09:07.409Z,16.04
2023-04-28T22:11:35.081Z,16.12
2023-04-28T22:14:02.245Z,16.09
2023-04-28T22:16:29.941Z,16.19
2023-04-28T22:19:16.664Z,15.75
2023-04-28T22:22:17.686Z,16.12
2023-04-28T22:25:18.628Z,15.91
2023-04-28T22:28:20.729Z,16.13
2023-04-28T22:31:21.727Z,15.81
2023-04-28T22:34:02.632Z,15.81
2023-04-28T22:36:29.743Z,15.48
2023-04-28T22:38:56.789Z,15.57
2023-04-28T22:41:24.647Z,15.21
2023-04-28T22:43:51.630Z,15.75
2023-04-28T22:46:18.712Z,15.42
2023-04-28T22:48:45.796Z,15.45
2023-04-28T22:51:32.654Z,15.72
2023-04-28T22:54:26.766Z,15.73
2023-04-28T22:57:07.742Z,15.91
2023-04-28T22:59:54.678Z,15.97
2023-04-28T23:02:55.784Z,15.77
2023-04-28T23:05:56.674Z,15.77
2023-04-28T23:08:37.228Z,15.33
2023-04-28T23:11:07.304Z,15.75
2023-04-28T23:13:34.596Z,15.77
2023-04-28T23:16:02.298Z,15.40
2023-04-28T23:18:31.456Z,15.78
2023-04-28T23:20:58.525Z,15.72
2023-04-28T23:23:25.612Z,15.76
2023-04-28T23:25:52.685Z,16.13
2023-04-28T23:28:39.705Z,16.01
2023-04-28T23:31:20.342Z,15.95
2023-04-28T23:33:47.329Z,15.41
2023-04-28T23:36:14.297Z,15.63
2023-04-28T23:38:41.219Z,15.62
2023-04-28T23:41:09.182Z,15.66
2023-04-28T23:43:36.412Z,15.79
2023-04-28T23:46:03.424Z,15.72
2023-04-28T23:48:30.474Z,15.81
2023-04-28T23:50:57.415Z,15.76
2023-04-28T23:53:24.730Z,15.69
2023-04-28T23:55:51.813Z,15.24
2023-04-28T23:58:38.747Z,15.40
